createdAt,value
2018-10-07T00:01:52.029Z,92.90
2018-10-07T00:04:24.277Z,93.00
2018-10-07T00:06:54.781Z,92.80
2018-10-07T00:09:24.902Z,92.80
2018-10-07T00:11:55.383Z,92.90
2018-10-07T00:14:25.787Z,92.80
2018-10-07T00:16:58.314Z,92.60
2018-10-07T00:19:28.271Z,92.60
2018-10-07T00:21:58.472Z,92.70
2018-10-07T00:24:28.987Z,92.70
2018-10-07T00:27:03.123Z,92.70
2018-10-07T00:29:33.495Z,92.90
2018-10-07T00:32:09.402Z,92.80
2018-10-07T00:34:39.903Z,92.70
2018-10-07T00:37:16.183Z,92.70
2018-10-07T00:39:46.370Z,92.50
2018-10-07T00:42:22.445Z,92.60
2018-10-07T00:44:53.411Z,92.40
2018-10-07T00:47:23.616Z,92.60
2018-10-07T00:49:54.518Z,92.50
2018-10-07T00:52:24.803Z,92.70
2018-10-07T00:54:55.397Z,92.70
2018-10-07T00:57:26.136Z,92.70
2018-10-07T00:59:56.782Z,92.70
2018-10-07T01:02:27.205Z,93.00
2018-10-07T01:04:58.754Z,93.20
2018-10-07T01:07:29.070Z,93.20
2018-10-07T01:09:59.406Z,93.20
2018-10-07T01:12:33.597Z,93.60
2018-10-07T01:15:04.377Z,93.70
2018-10-07T01:17:37.737Z,93.70
2018-10-07T01:20:08.197Z,93.90
2018-10-07T01:22:45.440Z,94.00
2018-10-07T01:25:15.623Z,94.10
2018-10-07T01:27:48.306Z,94.30
2018-10-07T01:30:22.583Z,94.40
2018-10-07T01:32:55.307Z,94.50
2018-10-07T01:35:25.945Z,94.50
2018-10-07T01:37:57.103Z,94.60
2018-10-07T01:40:27.485Z,94.70
2018-10-07T01:42:58.990Z,94.70
2018-10-07T01:45:29.236Z,94.60
2018-10-07T01:47:59.618Z,94.30
2018-10-07T01:50:29.694Z,94.20
2018-10-07T01:53:00.648Z,94.20
2018-10-07T01:55:30.926Z,94.30
2018-10-07T02:06:41.029Z,94.40
2018-10-07T02:09:11.794Z,94.80
2018-10-07T02:11:42.062Z,97.60
2018-10-07T02:14:12.452Z,98.30
2018-10-07T02:16:44.133Z,98.70
2018-10-07T02:19:14.409Z,99.00
2018-10-07T02:21:44.848Z,99.30
2018-10-07T02:24:15.284Z,99.20
2018-10-07T02:26:46.048Z,99.50
2018-10-07T02:29:16.768Z,99.40
2018-10-07T02:31:55.634Z,99.50
2018-10-07T02:34:26.003Z,99.80
2018-10-07T02:37:01.073Z,99.90
2018-10-07T02:39:31.909Z,99.90
2018-10-07T02:42:06.895Z,99.90
2018-10-07T02:44:38.292Z,99.90
2018-10-07T02:47:09.060Z,99.90
2018-10-07T02:49:44.794Z,99.90
2018-10-07T02:52:19.633Z,99.90
2018-10-07T02:54:50.302Z,99.90
2018-10-07T02:57:25.459Z,99.90
2018-10-07T02:59:56.368Z,99.90
2018-10-07T03:02:27.157Z,99.90
2018-10-07T03:04:57.878Z,99.90
2018-10-07T03:07:39.414Z,99.90
2018-10-07T03:10:10.648Z,99.80
2018-10-07T03:12:41.084Z,99.60
2018-10-07T03:15:12.134Z,99.50
2018-10-07T03:17:43.170Z,99.50
2018-10-07T03:20:14.206Z,99.60
2018-10-07T03:22:45.097Z,99.40
2018-10-07T03:25:16.346Z,99.60
2018-10-07T03:27:47.154Z,99.90
2018-10-07T03:30:17.895Z,99.90
2018-10-07T03:32:48.733Z,99.70
2018-10-07T03:35:19.463Z,99.30
2018-10-07T03:37:49.750Z,99.60
2018-10-07T03:40:19.777Z,99.60
2018-10-07T03:42:50.430Z,99.90
2018-10-07T03:45:20.545Z,99.70
2018-10-07T03:47:51.701Z,99.90
2018-10-07T03:50:21.684Z,99.90
2018-10-07T03:52:51.692Z,99.90
2018-10-07T03:55:32.187Z,99.70
2018-10-07T03:58:02.201Z,99.60
2018-10-07T04:00:32.227Z,99.80
2018-10-07T04:03:01.897Z,99.90
2018-10-07T04:05:32.849Z,99.80
2018-10-07T04:08:03.447Z,99.90
2018-10-07T04:10:34.021Z,99.90
2018-10-07T04:13:04.220Z,99.90
2018-10-07T04:15:37.157Z,99.60
2018-10-07T04:18:07.983Z,99.90
2018-10-07T04:20:39.528Z,99.80
2018-10-07T04:23:09.708Z,99.50
2018-10-07T04:25:40.610Z,99.80
2018-10-07T04:28:11.404Z,99.90
2018-10-07T04:30:41.682Z,99.90
2018-10-07T04:33:12.606Z,99.90
2018-10-07T04:35:43.247Z,99.70
2018-10-07T04:38:14.077Z,99.90
2018-10-07T04:40:44.535Z,99.80
2018-10-07T04:43:14.800Z,99.80
2018-10-07T04:45:56.436Z,99.80
2018-10-07T04:48:26.798Z,99.70
2018-10-07T04:51:09.368Z,99.90
2018-10-07T04:53:39.823Z,99.90
2018-10-07T04:56:15.878Z,99.90
2018-10-07T04:58:46.008Z,99.90
2018-10-07T05:01:17.057Z,99.80
2018-10-07T05:03:47.449Z,99.90
2018-10-07T05:06:18.946Z,99.90
2018-10-07T05:08:49.572Z,99.70
2018-10-07T05:11:30.229Z,99.90
2018-10-07T05:14:00.492Z,99.90
2018-10-07T05:16:38.029Z,99.70
2018-10-07T05:19:08.679Z,99.10
2018-10-07T05:21:39.036Z,99.30
2018-10-07T05:24:11.463Z,98.80
2018-10-07T05:26:42.363Z,98.90
2018-10-07T05:29:12.542Z,98.60
2018-10-07T05:31:42.941Z,98.70
2018-10-07T05:34:12.723Z,98.40
2018-10-07T05:36:42.629Z,99.00
2018-10-07T05:39:13.405Z,98.50
2018-10-07T05:41:43.721Z,98.50
2018-10-07T05:44:17.872Z,98.00
2018-10-07T05:46:47.679Z,97.50
2018-10-07T05:49:18.594Z,97.20
2018-10-07T05:51:48.647Z,97.60
2018-10-07T05:54:19.048Z,96.80
2018-10-07T05:56:49.032Z,96.80
2018-10-07T05:59:19.287Z,96.60
2018-10-07T06:01:49.810Z,95.80
2018-10-07T06:04:28.166Z,95.80
2018-10-07T06:07:00.150Z,96.50
2018-10-07T06:09:35.093Z,96.30
2018-10-07T06:12:05.210Z,94.70
2018-10-07T06:14:46.246Z,94.90
2018-10-07T06:17:16.021Z,95.20
2018-10-07T06:19:46.139Z,95.90
2018-10-07T06:22:19.767Z,95.30
2018-10-07T06:24:49.939Z,95.80
2018-10-07T06:27:20.199Z,95.30
2018-10-07T06:29:50.597Z,94.80
2018-10-07T06:32:20.707Z,93.90
2018-10-07T06:34:50.961Z,93.60
2018-10-07T06:37:21.330Z,93.50
2018-10-07T06:39:51.808Z,93.50
2018-10-07T06:42:21.510Z,93.50
2018-10-07T06:44:52.771Z,93.20
2018-10-07T06:47:22.707Z,93.30
2018-10-07T06:49:52.789Z,92.80
2018-10-07T06:52:22.884Z,92.60
2018-10-07T06:55:00.373Z,92.20
2018-10-07T06:57:36.584Z,92.20
2018-10-07T07:00:08.059Z,92.40
2018-10-07T07:02:38.005Z,91.90
2018-10-07T07:05:08.095Z,91.70
2018-10-07T07:07:39.058Z,91.10
2018-10-07T07:10:10.058Z,90.90
2018-10-07T07:12:40.406Z,90.90
2018-10-07T07:15:11.698Z,90.90
2018-10-07T07:17:41.971Z,90.90
2018-10-07T07:20:12.987Z,90.70
2018-10-07T07:22:42.894Z,89.60
2018-10-07T07:25:14.444Z,89.70
2018-10-07T07:27:44.604Z,89.80
2018-10-07T07:30:14.822Z,89.70
2018-10-07T07:32:47.445Z,89.70
2018-10-07T07:35:19.546Z,89.60
2018-10-07T07:37:52.597Z,89.40
2018-10-07T07:40:23.730Z,89.20
2018-10-07T07:42:54.991Z,89.20
2018-10-07T07:45:25.742Z,89.90
2018-10-07T07:47:56.748Z,89.80
2018-10-07T07:50:27.853Z,88.90
2018-10-07T07:52:58.117Z,88.90
2018-10-07T07:55:28.596Z,88.90
2018-10-07T07:58:00.165Z,88.60
2018-10-07T08:00:30.228Z,88.40
2018-10-07T08:03:00.460Z,87.90
2018-10-07T08:05:30.926Z,87.00
2018-10-07T08:08:02.462Z,86.70
2018-10-07T08:10:32.794Z,86.30
2018-10-07T08:13:03.464Z,86.30
2018-10-07T08:15:33.578Z,85.60
2018-10-07T08:18:04.412Z,85.90
2018-10-07T08:20:34.998Z,85.60
2018-10-07T08:23:05.308Z,85.70
2018-10-07T08:25:38.855Z,85.30
2018-10-07T08:28:10.325Z,85.10
2018-10-07T08:30:40.972Z,85.60
2018-10-07T08:33:11.061Z,85.20
2018-10-07T08:35:41.356Z,85.10
2018-10-07T08:38:11.683Z,85.10
2018-10-07T08:40:41.938Z,84.40
2018-10-07T08:43:12.556Z,85.00
2018-10-07T08:45:43.119Z,84.30
2018-10-07T08:48:14.049Z,85.00
2018-10-07T08:50:45.005Z,83.70
2018-10-07T08:53:15.159Z,83.50
2018-10-07T08:55:45.354Z,84.00
2018-10-07T08:58:15.619Z,84.20
2018-10-07T09:00:46.325Z,83.70
2018-10-07T09:03:16.893Z,82.60
2018-10-07T09:05:47.289Z,81.50
2018-10-07T09:08:17.156Z,81.10
2018-10-07T09:10:48.452Z,81.60
2018-10-07T09:13:18.960Z,81.70
2018-10-07T09:15:48.972Z,80.70
2018-10-07T09:18:19.099Z,80.80
2018-10-07T09:20:49.223Z,80.10
2018-10-07T09:23:19.580Z,79.50
2018-10-07T09:25:50.052Z,80.00
2018-10-07T09:28:20.526Z,79.20
2018-10-07T09:30:50.728Z,79.30
2018-10-07T09:33:21.124Z,79.00
2018-10-07T09:35:51.356Z,79.20
2018-10-07T09:38:21.627Z,79.40
2018-10-07T09:40:51.594Z,79.40
2018-10-07T09:43:24.070Z,79.00
2018-10-07T09:45:55.530Z,78.50
2018-10-07T09:48:26.256Z,77.80
2018-10-07T09:50:58.386Z,77.80
2018-10-07T09:53:29.288Z,77.50
2018-10-07T09:55:59.793Z,78.10
2018-10-07T09:58:31.174Z,79.20
2018-10-07T10:01:00.980Z,77.60
2018-10-07T10:03:31.446Z,77.20
2018-10-07T10:06:01.863Z,76.30
2018-10-07T10:08:32.785Z,76.60
2018-10-07T10:11:03.220Z,76.00
2018-10-07T10:13:33.694Z,75.90
2018-10-07T10:16:04.237Z,74.60
2018-10-07T10:18:43.783Z,74.40
2018-10-07T10:21:23.452Z,73.40
2018-10-07T10:24:16.074Z,73.20
2018-10-07T10:29:03.439Z,72.20
2018-10-07T10:32:43.262Z,71.00
2018-10-07T10:35:27.299Z,71.70
2018-10-07T10:38:10.159Z,70.40
2018-10-07T10:40:51.861Z,67.50
2018-10-07T10:43:34.857Z,66.40
2018-10-07T10:46:15.142Z,66.20
2018-10-07T10:48:55.293Z,64.50
2018-10-07T10:51:36.405Z,63.50
2018-10-07T10:54:25.772Z,62.90
2018-10-07T10:57:12.738Z,62.80
2018-10-07T10:59:50.371Z,62.90
2018-10-07T11:02:32.959Z,63.20
2018-10-07T11:05:47.166Z,63.80
2018-10-07T11:08:30.856Z,63.10
2018-10-07T11:11:14.469Z,62.60
2018-10-07T11:13:52.877Z,61.50
2018-10-07T11:18:37.613Z,61.50
2018-10-07T11:23:24.361Z,61.00
2018-10-07T11:26:03.606Z,61.90
2018-10-07T11:28:43.513Z,60.70
2018-10-07T11:31:24.437Z,60.10
2018-10-07T11:34:13.871Z,61.90
2018-10-07T11:37:10.710Z,61.70
2018-10-07T11:40:21.404Z,61.80
2018-10-07T11:43:18.040Z,60.80
2018-10-07T11:47:05.031Z,58.20
2018-10-07T11:50:51.959Z,58.20
2018-10-07T11:53:28.406Z,59.30
2018-10-07T11:55:58.613Z,58.80
2018-10-07T11:58:29.201Z,59.90
2018-10-07T12:01:00.174Z,57.90
2018-10-07T12:03:31.180Z,58.60
2018-10-07T12:06:01.695Z,58.90
2018-10-07T12:08:32.165Z,58.50
2018-10-07T12:11:01.877Z,58.20
2018-10-07T12:13:31.983Z,57.50
2018-10-07T12:16:02.223Z,57.90
2018-10-07T12:18:34.319Z,57.20
2018-10-07T12:21:04.527Z,56.40
2018-10-07T12:23:35.331Z,56.20
2018-10-07T12:26:06.289Z,56.30
2018-10-07T12:28:36.544Z,56.20
2018-10-07T12:31:07.372Z,56.90
2018-10-07T12:33:38.178Z,55.90
2018-10-07T12:36:09.318Z,55.10
2018-10-07T12:38:39.469Z,54.40
2018-10-07T12:41:09.736Z,55.00
2018-10-07T12:43:40.050Z,55.20
2018-10-07T12:46:10.134Z,55.90
2018-10-07T12:48:40.278Z,54.70
2018-10-07T12:51:11.461Z,55.00
2018-10-07T12:53:41.218Z,55.70
2018-10-07T12:56:11.263Z,55.50
2018-10-07T12:58:41.436Z,55.20
2018-10-07T13:01:11.842Z,54.60
2018-10-07T13:03:42.488Z,54.20
2018-10-07T13:06:13.323Z,54.10
2018-10-07T13:08:43.251Z,54.50
2018-10-07T13:11:17.961Z,53.70
2018-10-07T13:13:49.195Z,54.90
2018-10-07T13:16:24.357Z,55.90
2018-10-07T13:18:54.197Z,56.10
2018-10-07T13:21:27.908Z,56.30
2018-10-07T13:23:58.198Z,55.20
2018-10-07T13:26:28.652Z,55.20
2018-10-07T13:28:59.922Z,54.90
2018-10-07T13:31:30.263Z,54.90
2018-10-07T13:34:01.103Z,55.50
2018-10-07T13:36:31.730Z,55.50
2018-10-07T13:39:01.785Z,54.40
2018-10-07T13:41:32.100Z,54.30
2018-10-07T13:44:02.516Z,54.20
2018-10-07T13:46:33.057Z,54.40
2018-10-07T13:49:02.969Z,54.70
2018-10-07T13:51:32.972Z,55.00
2018-10-07T13:54:02.974Z,54.20
2018-10-07T13:56:33.280Z,53.90
2018-10-07T13:59:03.864Z,54.60
2018-10-07T14:01:33.942Z,54.30
2018-10-07T14:04:05.007Z,54.40
2018-10-07T14:06:34.757Z,54.70
2018-10-07T14:09:06.428Z,54.20
2018-10-07T14:11:36.586Z,54.70
2018-10-07T14:14:06.811Z,56.00
2018-10-07T14:16:36.671Z,55.40
2018-10-07T14:19:06.477Z,55.10
2018-10-07T14:21:36.550Z,55.70
2018-10-07T14:24:06.542Z,56.20
2018-10-07T14:26:36.907Z,57.00
2018-10-07T14:29:06.719Z,57.90
2018-10-07T14:31:37.281Z,59.20
2018-10-07T14:34:07.098Z,59.70
2018-10-07T14:36:36.802Z,60.90
2018-10-07T14:39:10.432Z,60.00
2018-10-07T14:41:40.045Z,59.90
2018-10-07T14:44:10.028Z,60.10
2018-10-07T14:46:39.828Z,60.30
2018-10-07T14:49:10.174Z,60.10
2018-10-07T14:51:40.239Z,59.60
2018-10-07T14:54:10.623Z,59.30
2018-10-07T14:56:40.609Z,58.80
2018-10-07T14:59:10.734Z,58.60
2018-10-07T15:01:41.089Z,57.60
2018-10-07T15:04:11.575Z,57.50
2018-10-07T15:06:41.516Z,57.20
2018-10-07T15:09:12.288Z,56.40
2018-10-07T15:11:42.397Z,56.40
2018-10-07T15:14:12.311Z,56.00
2018-10-07T15:16:42.343Z,56.10
2018-10-07T15:19:12.391Z,55.50
2018-10-07T15:21:42.463Z,56.20
2018-10-07T15:24:12.340Z,56.40
2018-10-07T15:26:42.465Z,56.90
2018-10-07T15:29:12.290Z,56.70
2018-10-07T15:31:42.462Z,55.50
2018-10-07T15:34:12.326Z,56.40
2018-10-07T15:36:43.473Z,57.90
2018-10-07T15:39:13.201Z,57.70
2018-10-07T15:41:43.246Z,59.20
2018-10-07T15:44:13.498Z,59.70
2018-10-07T15:46:43.896Z,60.70
2018-10-07T15:49:13.869Z,61.90
2018-10-07T15:51:43.877Z,63.50
2018-10-07T15:54:14.104Z,64.50
2018-10-07T15:56:44.468Z,64.80
2018-10-07T15:59:14.231Z,65.60
2018-10-07T16:01:44.564Z,65.40
2018-10-07T16:04:14.517Z,66.20
2018-10-07T16:06:44.730Z,67.00
2018-10-07T16:09:14.648Z,66.80
2018-10-07T16:11:44.840Z,67.70
2018-10-07T16:14:14.958Z,68.60
2018-10-07T16:16:44.864Z,68.50
2018-10-07T16:19:14.616Z,68.90
2018-10-07T16:21:49.428Z,69.50
2018-10-07T16:24:19.290Z,69.40
2018-10-07T16:26:50.689Z,69.70
2018-10-07T16:29:21.342Z,69.70
2018-10-07T16:31:51.585Z,70.10
2018-10-07T16:34:22.620Z,70.10
2018-10-07T16:36:53.029Z,70.50
2018-10-07T16:39:23.405Z,71.00
2018-10-07T16:41:54.202Z,71.20
2018-10-07T16:44:24.278Z,72.00
2018-10-07T16:46:54.666Z,72.30
2018-10-07T16:49:24.998Z,72.70
2018-10-07T16:51:55.726Z,73.00
2018-10-07T16:54:26.726Z,73.70
2018-10-07T16:56:56.344Z,74.20
2018-10-07T16:59:25.952Z,74.50
2018-10-07T17:01:55.264Z,74.90
2018-10-07T17:04:25.050Z,75.60
2018-10-07T17:06:54.668Z,75.60
2018-10-07T17:09:24.173Z,77.00
2018-10-07T17:11:53.571Z,76.50
2018-10-07T17:14:23.583Z,76.60
2018-10-07T17:16:53.000Z,76.70
2018-10-07T17:19:23.977Z,77.30
2018-10-07T17:21:53.733Z,77.50
2018-10-07T17:24:23.645Z,77.80
2018-10-07T17:26:53.740Z,78.40
2018-10-07T17:29:23.364Z,78.70
2018-10-07T17:31:52.731Z,79.40
2018-10-07T17:34:22.101Z,80.50
2018-10-07T17:36:51.716Z,80.90
2018-10-07T17:39:27.551Z,81.90
2018-10-07T17:41:57.706Z,82.10
2018-10-07T17:44:27.301Z,82.30
2018-10-07T17:46:56.625Z,82.30
2018-10-07T17:49:26.446Z,83.00
2018-10-07T17:51:56.219Z,82.70
2018-10-07T17:54:25.764Z,83.10
2018-10-07T17:57:03.950Z,83.50
2018-10-07T17:59:45.320Z,83.40
2018-10-07T18:02:15.262Z,83.70
2018-10-07T18:04:44.788Z,84.30
2018-10-07T18:07:14.116Z,85.00
2018-10-07T18:09:46.018Z,85.90
2018-10-07T18:12:15.872Z,86.40
2018-10-07T18:14:45.875Z,86.60
2018-10-07T18:17:15.732Z,86.70
2018-10-07T18:19:46.635Z,86.70
2018-10-07T18:22:16.366Z,87.80
2018-10-07T18:24:46.579Z,87.60
2018-10-07T18:27:16.354Z,88.00
2018-10-07T18:29:46.193Z,88.40
2018-10-07T18:32:16.627Z,88.60
2018-10-07T18:34:46.281Z,88.60
2018-10-07T18:37:16.503Z,89.30
2018-10-07T18:39:46.287Z,90.20
2018-10-07T18:42:15.854Z,89.90
2018-10-07T18:44:45.693Z,90.00
2018-10-07T18:47:15.963Z,88.80
2018-10-07T18:49:45.847Z,89.60
2018-10-07T18:52:15.535Z,90.00
2018-10-07T18:54:45.651Z,90.80
2018-10-07T18:57:15.155Z,91.70
2018-10-07T18:59:45.122Z,92.00
2018-10-07T19:02:14.933Z,92.20
2018-10-07T19:04:44.597Z,92.50
2018-10-07T19:07:14.309Z,92.50
2018-10-07T19:09:43.567Z,92.60
2018-10-07T19:12:14.155Z,93.70
2018-10-07T19:14:43.628Z,93.40
2018-10-07T19:17:13.961Z,93.60
2018-10-07T19:19:43.489Z,94.60
2018-10-07T19:22:12.893Z,94.90
2018-10-07T19:24:42.654Z,94.80
2018-10-07T19:27:12.373Z,95.50
2018-10-07T19:29:42.305Z,95.40
2018-10-07T19:32:11.642Z,95.60
2018-10-07T19:34:41.722Z,95.50
2018-10-07T19:37:11.252Z,95.70
2018-10-07T19:39:40.432Z,96.10
2018-10-07T19:42:09.853Z,96.50
2018-10-07T19:44:39.368Z,96.70
2018-10-07T19:47:09.212Z,96.70
2018-10-07T19:49:38.797Z,97.20
2018-10-07T19:52:13.467Z,97.50
2018-10-07T19:54:42.731Z,98.10
2018-10-07T19:57:13.149Z,97.70
2018-10-07T19:59:42.443Z,97.60
2018-10-07T20:02:11.800Z,97.70
2018-10-07T20:04:41.360Z,97.60
2018-10-07T20:07:10.817Z,97.60
2018-10-07T20:09:40.548Z,98.10
2018-10-07T20:12:09.768Z,98.60
2018-10-07T20:14:39.509Z,98.90
2018-10-07T20:17:10.274Z,98.70
2018-10-07T20:19:40.198Z,98.30
2018-10-07T20:22:14.919Z,98.40
2018-10-07T20:24:44.938Z,98.90
2018-10-07T20:27:14.970Z,99.70
2018-10-07T20:29:44.519Z,99.90
2018-10-07T20:32:14.020Z,99.90
2018-10-07T20:34:44.062Z,99.90
2018-10-07T20:37:13.968Z,99.90
2018-10-07T20:39:43.772Z,99.90
2018-10-07T20:42:13.648Z,99.90
2018-10-07T20:44:43.356Z,99.90
2018-10-07T20:47:13.484Z,99.90
2018-10-07T20:49:43.688Z,99.90
2018-10-07T20:52:13.745Z,99.90
2018-10-07T20:54:43.436Z,99.90
2018-10-07T20:57:13.050Z,99.90
2018-10-07T20:59:42.884Z,99.90
2018-10-07T21:02:12.982Z,99.90
2018-10-07T21:04:43.019Z,99.90
2018-10-07T21:07:12.934Z,99.70
2018-10-07T21:11:04.298Z,99.30
2018-10-07T21:13:34.820Z,99.60
2018-10-07T21:16:05.392Z,99.90
2018-10-07T21:18:35.344Z,99.90
2018-10-07T21:21:05.254Z,99.90
2018-10-07T21:23:35.589Z,99.90
2018-10-07T21:26:05.645Z,99.90
2018-10-07T21:28:37.544Z,99.90
2018-10-07T21:31:08.346Z,99.90
2018-10-07T21:33:38.492Z,99.90
2018-10-07T21:36:09.712Z,99.90
2018-10-07T21:38:39.851Z,99.90
2018-10-07T21:41:10.126Z,99.90
2018-10-07T21:43:40.196Z,99.90
2018-10-07T21:46:10.531Z,99.90
2018-10-07T21:48:41.520Z,99.90
2018-10-07T21:51:12.785Z,99.90
2018-10-07T21:53:43.364Z,99.90
2018-10-07T21:56:14.193Z,99.90
2018-10-07T21:58:45.746Z,99.90
2018-10-07T22:01:17.188Z,99.90
2018-10-07T22:03:48.168Z,99.90
2018-10-07T22:06:19.157Z,99.90
2018-10-07T22:08:50.898Z,99.90
2018-10-07T22:11:22.363Z,99.90
2018-10-07T22:13:53.535Z,99.90
2018-10-07T22:16:25.669Z,99.90
2018-10-07T22:18:56.976Z,99.90
2018-10-07T22:21:28.166Z,99.90
2018-10-07T22:23:59.577Z,99.90
2018-10-07T22:26:31.784Z,99.90
2018-10-07T22:29:03.050Z,99.90
2018-10-07T22:31:33.098Z,99.90
2018-10-07T22:34:03.264Z,99.90
2018-10-07T22:36:33.540Z,99.90
2018-10-07T22:39:04.100Z,99.90
2018-10-07T22:41:34.404Z,99.90
2018-10-07T22:44:04.816Z,99.90
2018-10-07T22:46:35.132Z,99.90
2018-10-07T22:49:05.702Z,99.90
2018-10-07T22:51:36.960Z,99.90
2018-10-07T22:54:08.330Z,99.90
2018-10-07T22:56:39.003Z,99.90
2018-10-07T22:59:09.989Z,99.90
2018-10-07T23:01:40.372Z,99.90
2018-10-07T23:04:11.593Z,99.90
2018-10-07T23:06:41.549Z,99.90
2018-10-07T23:09:12.905Z,99.90
2018-10-07T23:11:47.436Z,99.90
2018-10-07T23:14:17.456Z,99.90
2018-10-07T23:16:47.604Z,99.90
2018-10-07T23:19:18.187Z,99.90
2018-10-07T23:21:48.481Z,99.90
2018-10-07T23:24:18.756Z,99.90
2018-10-07T23:26:48.868Z,99.90
2018-10-07T23:29:19.210Z,99.90
2018-10-07T23:31:49.626Z,99.90
2018-10-07T23:34:19.585Z,99.90
2018-10-07T23:36:50.414Z,99.90
2018-10-07T23:39:20.714Z,99.90
2018-10-07T23:41:51.030Z,99.90
2018-10-07T23:44:21.162Z,99.90
2018-10-07T23:46:51.160Z,99.90
2018-10-07T23:49:21.400Z,99.90
2018-10-07T23:51:51.515Z,99.90
2018-10-07T23:54:21.610Z,99.90
2018-10-07T23:56:51.770Z,99.90
2018-10-07T23:59:22.429Z,99.90
